sensor_id;sensor_type;location;lat;lon;timestamp;P1;durP1;ratioP1;P2;durP2;ratioP2
31966;SDS011;18496;52.042;6.812;2024-03-08T00:01:46;31.65;;;17.05;;
31966;SDS011;18496;52.042;6.812;2024-03-08T00:03:50;30.48;;;16.30;;
31966;SDS011;18496;52.042;6.812;2024-03-08T00:05:55;37.45;;;17.60;;
31966;SDS011;18496;52.042;6.812;2024-03-08T00:07:59;35.75;;;17.75;;
31966;SDS011;18496;52.042;6.812;2024-03-08T00:10:03;32.45;;;17.00;;
31966;SDS011;18496;52.042;6.812;2024-03-08T00:12:07;38.10;;;16.50;;
31966;SDS011;18496;52.042;6.812;2024-03-08T00:14:11;30.25;;;16.55;;
31966;SDS011;18496;52.042;6.812;2024-03-08T00:16:15;30.92;;;16.50;;
31966;SDS011;18496;52.042;6.812;2024-03-08T00:18:19;40.70;;;17.65;;
31966;SDS011;18496;52.042;6.812;2024-03-08T00:20:22;31.92;;;16.67;;
31966;SDS011;18496;52.042;6.812;2024-03-08T00:22:26;30.65;;;15.73;;
31966;SDS011;18496;52.042;6.812;2024-03-08T00:24:30;33.15;;;16.95;;
31966;SDS011;18496;52.042;6.812;2024-03-08T00:26:34;33.53;;;17.48;;
31966;SDS011;18496;52.042;6.812;2024-03-08T00:28:37;29.35;;;16.75;;
31966;SDS011;18496;52.042;6.812;2024-03-08T00:30:41;31.88;;;16.88;;
31966;SDS011;18496;52.042;6.812;2024-03-08T00:32:45;32.92;;;16.67;;
31966;SDS011;18496;52.042;6.812;2024-03-08T00:34:49;31.50;;;17.17;;
31966;SDS011;18496;52.042;6.812;2024-03-08T00:36:55;31.73;;;17.98;;
31966;SDS011;18496;52.042;6.812;2024-03-08T00:38:58;31.60;;;15.90;;
31966;SDS011;18496;52.042;6.812;2024-03-08T00:41:03;37.05;;;17.73;;
31966;SDS011;18496;52.042;6.812;2024-03-08T00:43:07;31.80;;;16.60;;
31966;SDS011;18496;52.042;6.812;2024-03-08T00:45:11;36.78;;;16.83;;
31966;SDS011;18496;52.042;6.812;2024-03-08T00:47:15;35.35;;;17.20;;
31966;SDS011;18496;52.042;6.812;2024-03-08T00:49:19;30.15;;;16.92;;
31966;SDS011;18496;52.042;6.812;2024-03-08T00:51:23;34.88;;;17.58;;
31966;SDS011;18496;52.042;6.812;2024-03-08T00:53:26;29.60;;;16.05;;
31966;SDS011;18496;52.042;6.812;2024-03-08T00:55:30;32.13;;;16.13;;
31966;SDS011;18496;52.042;6.812;2024-03-08T00:57:34;30.60;;;15.88;;
31966;SDS011;18496;52.042;6.812;2024-03-08T00:59:38;34.05;;;16.55;;
31966;SDS011;18496;52.042;6.812;2024-03-08T01:01:42;38.42;;;17.90;;
31966;SDS011;18496;52.042;6.812;2024-03-08T01:03:47;33.65;;;16.40;;
31966;SDS011;18496;52.042;6.812;2024-03-08T01:05:51;33.15;;;17.65;;
31966;SDS011;18496;52.042;6.812;2024-03-08T01:07:55;34.60;;;17.20;;
31966;SDS011;18496;52.042;6.812;2024-03-08T01:09:59;30.77;;;16.92;;
31966;SDS011;18496;52.042;6.812;2024-03-08T01:12:03;34.63;;;16.92;;
31966;SDS011;18496;52.042;6.812;2024-03-08T01:14:10;31.38;;;17.23;;
31966;SDS011;18496;52.042;6.812;2024-03-08T01:16:14;37.25;;;17.15;;
31966;SDS011;18496;52.042;6.812;2024-03-08T01:18:17;31.52;;;16.05;;
31966;SDS011;18496;52.042;6.812;2024-03-08T01:20:22;33.70;;;17.35;;
31966;SDS011;18496;52.042;6.812;2024-03-08T01:22:26;30.38;;;17.33;;
31966;SDS011;18496;52.042;6.812;2024-03-08T01:24:31;30.25;;;16.85;;
31966;SDS011;18496;52.042;6.812;2024-03-08T01:26:35;35.08;;;18.23;;
31966;SDS011;18496;52.042;6.812;2024-03-08T01:28:38;25.75;;;15.68;;
31966;SDS011;18496;52.042;6.812;2024-03-08T01:30:42;35.03;;;18.80;;
31966;SDS011;18496;52.042;6.812;2024-03-08T01:32:46;36.25;;;17.45;;
31966;SDS011;18496;52.042;6.812;2024-03-08T01:34:50;34.67;;;16.75;;
31966;SDS011;18496;52.042;6.812;2024-03-08T01:36:54;36.05;;;17.30;;
31966;SDS011;18496;52.042;6.812;2024-03-08T01:38:59;36.67;;;19.13;;
31966;SDS011;18496;52.042;6.812;2024-03-08T01:41:03;36.33;;;18.65;;
31966;SDS011;18496;52.042;6.812;2024-03-08T01:43:40;36.85;;;17.25;;
31966;SDS011;18496;52.042;6.812;2024-03-08T01:45:37;29.30;;;16.88;;
31966;SDS011;18496;52.042;6.812;2024-03-08T01:47:40;33.88;;;18.08;;
31966;SDS011;18496;52.042;6.812;2024-03-08T01:49:44;27.55;;;15.82;;
31966;SDS011;18496;52.042;6.812;2024-03-08T01:51:48;33.22;;;17.88;;
31966;SDS011;18496;52.042;6.812;2024-03-08T01:53:52;34.60;;;17.77;;
31966;SDS011;18496;52.042;6.812;2024-03-08T01:55:56;34.97;;;18.02;;
31966;SDS011;18496;52.042;6.812;2024-03-08T01:58:01;32.67;;;16.55;;
31966;SDS011;18496;52.042;6.812;2024-03-08T02:00:07;35.20;;;18.17;;
31966;SDS011;18496;52.042;6.812;2024-03-08T02:02:13;35.28;;;18.25;;
31966;SDS011;18496;52.042;6.812;2024-03-08T02:04:21;31.85;;;17.73;;
31966;SDS011;18496;52.042;6.812;2024-03-08T02:06:24;33.33;;;17.42;;
31966;SDS011;18496;52.042;6.812;2024-03-08T02:08:28;32.40;;;17.63;;
31966;SDS011;18496;52.042;6.812;2024-03-08T02:10:32;34.42;;;16.65;;
31966;SDS011;18496;52.042;6.812;2024-03-08T02:12:37;36.30;;;17.60;;
31966;SDS011;18496;52.042;6.812;2024-03-08T02:14:41;37.28;;;18.70;;
31966;SDS011;18496;52.042;6.812;2024-03-08T02:16:46;34.92;;;18.10;;
31966;SDS011;18496;52.042;6.812;2024-03-08T02:18:50;30.17;;;17.05;;
31966;SDS011;18496;52.042;6.812;2024-03-08T02:20:54;35.50;;;17.90;;
31966;SDS011;18496;52.042;6.812;2024-03-08T02:22:59;37.42;;;18.30;;
31966;SDS011;18496;52.042;6.812;2024-03-08T02:25:02;34.88;;;18.95;;
31966;SDS011;18496;52.042;6.812;2024-03-08T02:27:06;36.85;;;18.92;;
31966;SDS011;18496;52.042;6.812;2024-03-08T02:29:10;34.22;;;17.65;;
31966;SDS011;18496;52.042;6.812;2024-03-08T02:31:15;34.10;;;17.85;;
31966;SDS011;18496;52.042;6.812;2024-03-08T02:33:19;37.05;;;18.20;;
31966;SDS011;18496;52.042;6.812;2024-03-08T02:35:23;32.70;;;17.75;;
31966;SDS011;18496;52.042;6.812;2024-03-08T02:37:27;37.05;;;18.52;;
31966;SDS011;18496;52.042;6.812;2024-03-08T02:39:31;34.15;;;18.13;;
31966;SDS011;18496;52.042;6.812;2024-03-08T02:41:35;34.17;;;18.63;;
31966;SDS011;18496;52.042;6.812;2024-03-08T02:43:39;33.58;;;18.10;;
31966;SDS011;18496;52.042;6.812;2024-03-08T02:45:42;36.35;;;18.58;;
31966;SDS011;18496;52.042;6.812;2024-03-08T02:47:47;37.08;;;19.05;;
31966;SDS011;18496;52.042;6.812;2024-03-08T02:49:53;39.08;;;18.77;;
31966;SDS011;18496;52.042;6.812;2024-03-08T02:51:57;34.63;;;19.05;;
31966;SDS011;18496;52.042;6.812;2024-03-08T02:54:01;32.72;;;18.02;;
31966;SDS011;18496;52.042;6.812;2024-03-08T02:56:07;32.15;;;17.98;;
31966;SDS011;18496;52.042;6.812;2024-03-08T02:58:12;37.55;;;19.00;;
31966;SDS011;18496;52.042;6.812;2024-03-08T03:00:17;36.10;;;17.80;;
31966;SDS011;18496;52.042;6.812;2024-03-08T03:02:22;42.97;;;20.45;;
31966;SDS011;18496;52.042;6.812;2024-03-08T03:04:26;39.95;;;18.23;;
31966;SDS011;18496;52.042;6.812;2024-03-08T03:06:30;36.72;;;19.17;;
31966;SDS011;18496;52.042;6.812;2024-03-08T03:08:34;39.22;;;19.73;;
31966;SDS011;18496;52.042;6.812;2024-03-08T03:10:38;39.92;;;17.98;;
31966;SDS011;18496;52.042;6.812;2024-03-08T03:12:42;36.33;;;18.80;;
31966;SDS011;18496;52.042;6.812;2024-03-08T03:14:46;40.95;;;19.42;;
31966;SDS011;18496;52.042;6.812;2024-03-08T03:16:50;33.70;;;18.23;;
31966;SDS011;18496;52.042;6.812;2024-03-08T03:18:54;39.20;;;18.95;;
31966;SDS011;18496;52.042;6.812;2024-03-08T03:21:00;36.10;;;19.90;;
31966;SDS011;18496;52.042;6.812;2024-03-08T03:23:08;41.28;;;19.83;;
31966;SDS011;18496;52.042;6.812;2024-03-08T03:25:12;38.25;;;19.63;;
31966;SDS011;18496;52.042;6.812;2024-03-08T03:27:17;40.90;;;19.40;;
31966;SDS011;18496;52.042;6.812;2024-03-08T03:29:21;38.88;;;20.42;;
31966;SDS011;18496;52.042;6.812;2024-03-08T03:31:24;37.60;;;19.50;;
31966;SDS011;18496;52.042;6.812;2024-03-08T03:33:28;43.13;;;19.83;;
31966;SDS011;18496;52.042;6.812;2024-03-08T03:35:32;33.15;;;16.88;;
31966;SDS011;18496;52.042;6.812;2024-03-08T03:37:37;40.22;;;19.75;;
31966;SDS011;18496;52.042;6.812;2024-03-08T03:39:42;41.47;;;19.92;;
31966;SDS011;18496;52.042;6.812;2024-03-08T03:41:52;40.80;;;18.75;;
31966;SDS011;18496;52.042;6.812;2024-03-08T03:43:55;38.67;;;19.00;;
31966;SDS011;18496;52.042;6.812;2024-03-08T03:45:59;38.45;;;20.02;;
31966;SDS011;18496;52.042;6.812;2024-03-08T03:48:06;34.03;;;17.05;;
31966;SDS011;18496;52.042;6.812;2024-03-08T03:50:12;38.40;;;17.98;;
31966;SDS011;18496;52.042;6.812;2024-03-08T03:52:16;35.05;;;18.77;;
31966;SDS011;18496;52.042;6.812;2024-03-08T03:54:20;38.97;;;19.63;;
31966;SDS011;18496;52.042;6.812;2024-03-08T03:56:27;36.90;;;20.05;;
31966;SDS011;18496;52.042;6.812;2024-03-08T03:58:30;42.17;;;20.48;;
31966;SDS011;18496;52.042;6.812;2024-03-08T04:00:34;37.60;;;18.75;;
31966;SDS011;18496;52.042;6.812;2024-03-08T04:02:38;35.80;;;18.60;;
31966;SDS011;18496;52.042;6.812;2024-03-08T04:04:42;37.65;;;19.42;;
31966;SDS011;18496;52.042;6.812;2024-03-08T04:06:47;35.95;;;19.42;;
31966;SDS011;18496;52.042;6.812;2024-03-08T04:08:50;31.35;;;17.48;;
31966;SDS011;18496;52.042;6.812;2024-03-08T04:10:54;37.53;;;20.02;;
31966;SDS011;18496;52.042;6.812;2024-03-08T04:12:58;39.53;;;19.73;;
31966;SDS011;18496;52.042;6.812;2024-03-08T04:15:02;36.38;;;18.45;;
31966;SDS011;18496;52.042;6.812;2024-03-08T04:17:06;40.00;;;20.48;;
31966;SDS011;18496;52.042;6.812;2024-03-08T04:19:09;42.45;;;20.23;;
31966;SDS011;18496;52.042;6.812;2024-03-08T04:21:13;42.00;;;20.52;;
31966;SDS011;18496;52.042;6.812;2024-03-08T04:23:17;37.75;;;19.13;;
31966;SDS011;18496;52.042;6.812;2024-03-08T04:25:21;41.45;;;21.02;;
31966;SDS011;18496;52.042;6.812;2024-03-08T04:27:24;39.90;;;20.60;;
31966;SDS011;18496;52.042;6.812;2024-03-08T04:29:28;40.95;;;20.67;;
31966;SDS011;18496;52.042;6.812;2024-03-08T04:31:32;43.33;;;20.75;;
31966;SDS011;18496;52.042;6.812;2024-03-08T04:33:35;42.30;;;20.52;;
31966;SDS011;18496;52.042;6.812;2024-03-08T04:35:39;44.97;;;20.38;;
31966;SDS011;18496;52.042;6.812;2024-03-08T04:37:43;38.45;;;19.92;;
31966;SDS011;18496;52.042;6.812;2024-03-08T04:39:48;42.38;;;21.20;;
31966;SDS011;18496;52.042;6.812;2024-03-08T04:41:52;37.88;;;19.45;;
31966;SDS011;18496;52.042;6.812;2024-03-08T04:43:57;36.63;;;18.92;;
31966;SDS011;18496;52.042;6.812;2024-03-08T04:46:01;36.17;;;19.15;;
31966;SDS011;18496;52.042;6.812;2024-03-08T04:48:06;42.00;;;21.30;;
31966;SDS011;18496;52.042;6.812;2024-03-08T04:50:11;39.38;;;19.52;;
31966;SDS011;18496;52.042;6.812;2024-03-08T04:52:15;37.03;;;18.73;;
31966;SDS011;18496;52.042;6.812;2024-03-08T04:54:19;41.13;;;19.80;;
31966;SDS011;18496;52.042;6.812;2024-03-08T04:56:23;45.03;;;20.23;;
31966;SDS011;18496;52.042;6.812;2024-03-08T04:58:26;42.63;;;21.08;;
31966;SDS011;18496;52.042;6.812;2024-03-08T05:00:31;41.33;;;20.95;;
31966;SDS011;18496;52.042;6.812;2024-03-08T05:02:35;40.50;;;21.33;;
31966;SDS011;18496;52.042;6.812;2024-03-08T05:04:39;39.05;;;21.23;;
31966;SDS011;18496;52.042;6.812;2024-03-08T05:06:43;42.20;;;21.25;;
31966;SDS011;18496;52.042;6.812;2024-03-08T05:08:47;37.55;;;18.33;;
31966;SDS011;18496;52.042;6.812;2024-03-08T05:10:50;43.83;;;20.55;;
31966;SDS011;18496;52.042;6.812;2024-03-08T05:12:54;46.70;;;22.73;;
31966;SDS011;18496;52.042;6.812;2024-03-08T05:14:58;45.08;;;21.73;;
31966;SDS011;18496;52.042;6.812;2024-03-08T05:17:01;42.30;;;22.08;;
31966;SDS011;18496;52.042;6.812;2024-03-08T05:19:05;44.83;;;21.83;;
31966;SDS011;18496;52.042;6.812;2024-03-08T05:21:09;41.10;;;20.92;;
31966;SDS011;18496;52.042;6.812;2024-03-08T05:23:13;45.13;;;22.92;;
31966;SDS011;18496;52.042;6.812;2024-03-08T05:25:17;44.08;;;21.95;;
31966;SDS011;18496;52.042;6.812;2024-03-08T05:27:20;41.42;;;21.33;;
31966;SDS011;18496;52.042;6.812;2024-03-08T05:29:24;41.95;;;21.63;;
31966;SDS011;18496;52.042;6.812;2024-03-08T05:31:28;43.03;;;21.15;;
31966;SDS011;18496;52.042;6.812;2024-03-08T05:33:33;44.45;;;21.88;;
31966;SDS011;18496;52.042;6.812;2024-03-08T05:35:37;41.38;;;20.90;;
31966;SDS011;18496;52.042;6.812;2024-03-08T05:37:41;43.55;;;23.10;;
31966;SDS011;18496;52.042;6.812;2024-03-08T05:39:48;46.80;;;21.45;;
31966;SDS011;18496;52.042;6.812;2024-03-08T05:41:51;43.50;;;22.42;;
31966;SDS011;18496;52.042;6.812;2024-03-08T05:43:55;44.47;;;22.00;;
31966;SDS011;18496;52.042;6.812;2024-03-08T05:45:59;42.78;;;21.45;;
31966;SDS011;18496;52.042;6.812;2024-03-08T05:48:03;43.15;;;21.05;;
31966;SDS011;18496;52.042;6.812;2024-03-08T05:50:07;42.45;;;23.42;;
31966;SDS011;18496;52.042;6.812;2024-03-08T05:52:13;54.03;;;23.35;;
31966;SDS011;18496;52.042;6.812;2024-03-08T05:54:18;46.20;;;24.15;;
31966;SDS011;18496;52.042;6.812;2024-03-08T05:56:25;43.40;;;21.95;;
31966;SDS011;18496;52.042;6.812;2024-03-08T05:58:28;46.10;;;23.02;;
31966;SDS011;18496;52.042;6.812;2024-03-08T06:00:35;41.90;;;22.00;;
31966;SDS011;18496;52.042;6.812;2024-03-08T06:02:39;51.30;;;24.45;;
31966;SDS011;18496;52.042;6.812;2024-03-08T06:04:44;44.63;;;21.65;;
31966;SDS011;18496;52.042;6.812;2024-03-08T06:06:49;48.20;;;24.10;;
31966;SDS011;18496;52.042;6.812;2024-03-08T06:08:54;43.15;;;21.38;;
31966;SDS011;18496;52.042;6.812;2024-03-08T06:11:02;48.03;;;23.85;;
31966;SDS011;18496;52.042;6.812;2024-03-08T06:13:05;41.67;;;20.48;;
31966;SDS011;18496;52.042;6.812;2024-03-08T06:15:09;46.58;;;23.42;;
31966;SDS011;18496;52.042;6.812;2024-03-08T06:17:13;45.97;;;23.08;;
31966;SDS011;18496;52.042;6.812;2024-03-08T06:19:17;52.33;;;24.33;;
31966;SDS011;18496;52.042;6.812;2024-03-08T06:21:20;49.90;;;22.77;;
31966;SDS011;18496;52.042;6.812;2024-03-08T06:23:25;46.75;;;23.85;;
31966;SDS011;18496;52.042;6.812;2024-03-08T06:25:30;51.75;;;25.13;;
31966;SDS011;18496;52.042;6.812;2024-03-08T06:27:34;49.45;;;23.27;;
31966;SDS011;18496;52.042;6.812;2024-03-08T06:29:38;46.58;;;24.35;;
31966;SDS011;18496;52.042;6.812;2024-03-08T06:31:42;54.50;;;27.08;;
31966;SDS011;18496;52.042;6.812;2024-03-08T06:33:46;49.67;;;23.25;;
31966;SDS011;18496;52.042;6.812;2024-03-08T06:35:49;50.45;;;24.48;;
31966;SDS011;18496;52.042;6.812;2024-03-08T06:37:53;47.13;;;21.67;;
31966;SDS011;18496;52.042;6.812;2024-03-08T06:39:57;46.58;;;23.27;;
31966;SDS011;18496;52.042;6.812;2024-03-08T06:42:01;48.88;;;23.23;;
31966;SDS011;18496;52.042;6.812;2024-03-08T06:44:05;51.60;;;25.63;;
31966;SDS011;18496;52.042;6.812;2024-03-08T06:46:11;43.03;;;22.20;;
31966;SDS011;18496;52.042;6.812;2024-03-08T06:48:17;51.25;;;23.30;;
31966;SDS011;18496;52.042;6.812;2024-03-08T06:50:21;48.30;;;23.50;;
31966;SDS011;18496;52.042;6.812;2024-03-08T06:52:24;49.60;;;23.02;;
31966;SDS011;18496;52.042;6.812;2024-03-08T06:54:28;48.05;;;23.60;;
31966;SDS011;18496;52.042;6.812;2024-03-08T06:56:32;47.38;;;23.48;;
31966;SDS011;18496;52.042;6.812;2024-03-08T06:58:35;47.60;;;23.65;;
31966;SDS011;18496;52.042;6.812;2024-03-08T07:00:39;50.53;;;23.75;;
31966;SDS011;18496;52.042;6.812;2024-03-08T07:02:43;48.85;;;24.23;;
31966;SDS011;18496;52.042;6.812;2024-03-08T07:04:50;48.65;;;22.77;;
31966;SDS011;18496;52.042;6.812;2024-03-08T07:06:54;49.95;;;23.90;;
31966;SDS011;18496;52.042;6.812;2024-03-08T07:08:58;51.30;;;24.58;;
31966;SDS011;18496;52.042;6.812;2024-03-08T07:11:02;49.65;;;24.25;;
31966;SDS011;18496;52.042;6.812;2024-03-08T07:13:06;54.08;;;24.70;;
31966;SDS011;18496;52.042;6.812;2024-03-08T07:15:11;44.08;;;22.88;;
31966;SDS011;18496;52.042;6.812;2024-03-08T07:17:19;51.75;;;24.30;;
31966;SDS011;18496;52.042;6.812;2024-03-08T07:19:22;52.58;;;24.17;;
31966;SDS011;18496;52.042;6.812;2024-03-08T07:21:27;47.40;;;22.75;;
31966;SDS011;18496;52.042;6.812;2024-03-08T07:23:30;51.15;;;24.60;;
31966;SDS011;18496;52.042;6.812;2024-03-08T07:25:49;47.25;;;23.38;;
31966;SDS011;18496;52.042;6.812;2024-03-08T07:27:53;45.85;;;21.90;;
31966;SDS011;18496;52.042;6.812;2024-03-08T07:29:57;47.25;;;22.60;;
31966;SDS011;18496;52.042;6.812;2024-03-08T07:32:05;52.25;;;23.63;;
31966;SDS011;18496;52.042;6.812;2024-03-08T07:34:36;67.57;;;31.92;;
31966;SDS011;18496;52.042;6.812;2024-03-08T07:36:40;78.28;;;34.00;;
31966;SDS011;18496;52.042;6.812;2024-03-08T07:38:44;57.45;;;27.13;;
31966;SDS011;18496;52.042;6.812;2024-03-08T07:40:49;53.00;;;25.05;;
31966;SDS011;18496;52.042;6.812;2024-03-08T07:42:53;61.35;;;28.33;;
31966;SDS011;18496;52.042;6.812;2024-03-08T07:44:57;74.50;;;30.73;;
31966;SDS011;18496;52.042;6.812;2024-03-08T07:47:00;70.95;;;33.80;;
31966;SDS011;18496;52.042;6.812;2024-03-08T07:49:04;73.35;;;33.30;;
31966;SDS011;18496;52.042;6.812;2024-03-08T07:51:08;63.28;;;29.10;;
31966;SDS011;18496;52.042;6.812;2024-03-08T07:53:12;57.25;;;29.48;;
31966;SDS011;18496;52.042;6.812;2024-03-08T07:55:16;56.28;;;26.58;;
31966;SDS011;18496;52.042;6.812;2024-03-08T07:57:20;62.42;;;28.85;;
31966;SDS011;18496;52.042;6.812;2024-03-08T07:59:24;52.45;;;25.27;;
31966;SDS011;18496;52.042;6.812;2024-03-08T08:01:28;49.55;;;25.27;;
31966;SDS011;18496;52.042;6.812;2024-03-08T08:03:31;50.35;;;24.13;;
31966;SDS011;18496;52.042;6.812;2024-03-08T08:05:35;54.60;;;26.73;;
31966;SDS011;18496;52.042;6.812;2024-03-08T08:07:43;49.97;;;24.50;;
31966;SDS011;18496;52.042;6.812;2024-03-08T08:09:47;46.55;;;23.77;;
31966;SDS011;18496;52.042;6.812;2024-03-08T08:11:51;46.30;;;24.63;;
31966;SDS011;18496;52.042;6.812;2024-03-08T08:13:55;42.20;;;22.83;;
31966;SDS011;18496;52.042;6.812;2024-03-08T08:15:58;47.28;;;23.98;;
31966;SDS011;18496;52.042;6.812;2024-03-08T08:18:02;50.17;;;25.58;;
31966;SDS011;18496;52.042;6.812;2024-03-08T08:20:09;49.72;;;25.08;;
31966;SDS011;18496;52.042;6.812;2024-03-08T08:22:14;50.65;;;24.02;;
31966;SDS011;18496;52.042;6.812;2024-03-08T08:24:18;46.40;;;23.42;;
31966;SDS011;18496;52.042;6.812;2024-03-08T08:26:23;48.47;;;23.88;;
31966;SDS011;18496;52.042;6.812;2024-03-08T08:28:29;51.05;;;23.73;;
31966;SDS011;18496;52.042;6.812;2024-03-08T08:30:34;49.47;;;24.88;;
31966;SDS011;18496;52.042;6.812;2024-03-08T08:32:38;53.40;;;24.63;;
31966;SDS011;18496;52.042;6.812;2024-03-08T08:34:50;43.67;;;22.42;;
31966;SDS011;18496;52.042;6.812;2024-03-08T08:36:53;45.20;;;22.77;;
31966;SDS011;18496;52.042;6.812;2024-03-08T08:38:57;48.00;;;23.70;;
31966;SDS011;18496;52.042;6.812;2024-03-08T08:41:02;52.58;;;24.45;;
31966;SDS011;18496;52.042;6.812;2024-03-08T08:43:07;51.95;;;22.90;;
31966;SDS011;18496;52.042;6.812;2024-03-08T08:45:11;49.83;;;23.45;;
31966;SDS011;18496;52.042;6.812;2024-03-08T08:47:15;55.38;;;24.65;;
31966;SDS011;18496;52.042;6.812;2024-03-08T08:49:21;51.85;;;24.58;;
31966;SDS011;18496;52.042;6.812;2024-03-08T08:51:26;57.35;;;31.00;;
31966;SDS011;18496;52.042;6.812;2024-03-08T08:53:30;52.28;;;25.45;;
31966;SDS011;18496;52.042;6.812;2024-03-08T08:55:34;57.85;;;26.92;;
31966;SDS011;18496;52.042;6.812;2024-03-08T08:57:39;50.85;;;25.00;;
31966;SDS011;18496;52.042;6.812;2024-03-08T08:59:42;48.17;;;24.48;;
31966;SDS011;18496;52.042;6.812;2024-03-08T09:01:46;53.53;;;25.15;;
31966;SDS011;18496;52.042;6.812;2024-03-08T09:03:53;48.53;;;23.45;;
31966;SDS011;18496;52.042;6.812;2024-03-08T09:05:57;48.50;;;24.27;;
31966;SDS011;18496;52.042;6.812;2024-03-08T09:08:01;53.50;;;23.92;;
31966;SDS011;18496;52.042;6.812;2024-03-08T09:10:06;46.85;;;22.42;;
31966;SDS011;18496;52.042;6.812;2024-03-08T09:12:12;50.20;;;23.73;;
31966;SDS011;18496;52.042;6.812;2024-03-08T09:14:16;46.63;;;24.55;;
31966;SDS011;18496;52.042;6.812;2024-03-08T09:16:20;46.88;;;24.38;;
31966;SDS011;18496;52.042;6.812;2024-03-08T09:18:23;48.92;;;23.27;;
31966;SDS011;18496;52.042;6.812;2024-03-08T09:20:28;52.42;;;23.73;;
31966;SDS011;18496;52.042;6.812;2024-03-08T09:22:32;46.85;;;23.52;;
31966;SDS011;18496;52.042;6.812;2024-03-08T09:24:36;50.28;;;24.85;;
31966;SDS011;18496;52.042;6.812;2024-03-08T09:26:40;48.33;;;24.38;;
31966;SDS011;18496;52.042;6.812;2024-03-08T09:28:45;45.72;;;23.88;;
31966;SDS011;18496;52.042;6.812;2024-03-08T09:30:49;50.60;;;25.52;;
31966;SDS011;18496;52.042;6.812;2024-03-08T09:32:52;47.60;;;24.45;;
31966;SDS011;18496;52.042;6.812;2024-03-08T09:34:56;50.97;;;25.35;;
31966;SDS011;18496;52.042;6.812;2024-03-08T09:37:00;48.05;;;23.80;;
31966;SDS011;18496;52.042;6.812;2024-03-08T09:39:03;48.88;;;23.42;;
31966;SDS011;18496;52.042;6.812;2024-03-08T09:41:10;47.42;;;22.95;;
31966;SDS011;18496;52.042;6.812;2024-03-08T09:43:14;44.17;;;21.65;;
31966;SDS011;18496;52.042;6.812;2024-03-08T09:45:18;43.45;;;21.48;;
31966;SDS011;18496;52.042;6.812;2024-03-08T09:47:25;44.28;;;21.83;;
31966;SDS011;18496;52.042;6.812;2024-03-08T09:49:36;39.47;;;21.60;;
31966;SDS011;18496;52.042;6.812;2024-03-08T09:51:40;41.50;;;21.73;;
31966;SDS011;18496;52.042;6.812;2024-03-08T09:53:44;46.38;;;23.10;;
31966;SDS011;18496;52.042;6.812;2024-03-08T09:55:49;45.33;;;22.98;;
31966;SDS011;18496;52.042;6.812;2024-03-08T09:57:53;42.50;;;22.23;;
31966;SDS011;18496;52.042;6.812;2024-03-08T10:00:16;43.20;;;21.83;;
31966;SDS011;18496;52.042;6.812;2024-03-08T10:02:27;44.80;;;22.70;;
31966;SDS011;18496;52.042;6.812;2024-03-08T10:04:31;39.88;;;21.00;;
31966;SDS011;18496;52.042;6.812;2024-03-08T10:06:36;41.55;;;20.98;;
31966;SDS011;18496;52.042;6.812;2024-03-08T10:08:39;38.88;;;20.55;;
31966;SDS011;18496;52.042;6.812;2024-03-08T10:10:43;38.38;;;20.52;;
31966;SDS011;18496;52.042;6.812;2024-03-08T10:12:47;42.13;;;21.83;;
31966;SDS011;18496;52.042;6.812;2024-03-08T10:14:54;48.58;;;23.90;;
31966;SDS011;18496;52.042;6.812;2024-03-08T10:16:59;42.50;;;20.75;;
31966;SDS011;18496;52.042;6.812;2024-03-08T10:19:03;41.00;;;20.83;;
31966;SDS011;18496;52.042;6.812;2024-03-08T10:21:16;40.22;;;21.40;;
31966;SDS011;18496;52.042;6.812;2024-03-08T10:23:20;41.28;;;20.67;;
31966;SDS011;18496;52.042;6.812;2024-03-08T10:25:24;38.63;;;21.40;;
31966;SDS011;18496;52.042;6.812;2024-03-08T10:27:27;39.33;;;21.55;;
31966;SDS011;18496;52.042;6.812;2024-03-08T10:29:34;41.83;;;21.73;;
31966;SDS011;18496;52.042;6.812;2024-03-08T10:31:39;44.67;;;22.42;;
31966;SDS011;18496;52.042;6.812;2024-03-08T10:33:42;40.40;;;21.15;;
31966;SDS011;18496;52.042;6.812;2024-03-08T10:35:47;50.33;;;22.38;;
31966;SDS011;18496;52.042;6.812;2024-03-08T10:37:51;45.15;;;22.25;;
31966;SDS011;18496;52.042;6.812;2024-03-08T10:40:06;40.90;;;20.98;;
31966;SDS011;18496;52.042;6.812;2024-03-08T10:42:18;41.65;;;21.30;;
31966;SDS011;18496;52.042;6.812;2024-03-08T10:47:04;42.47;;;22.67;;
31966;SDS011;18496;52.042;6.812;2024-03-08T10:49:17;43.35;;;23.15;;
31966;SDS011;18496;52.042;6.812;2024-03-08T10:51:27;43.83;;;21.80;;
31966;SDS011;18496;52.042;6.812;2024-03-08T10:53:33;45.28;;;22.73;;
31966;SDS011;18496;52.042;6.812;2024-03-08T10:55:37;40.35;;;22.02;;
31966;SDS011;18496;52.042;6.812;2024-03-08T10:57:44;45.13;;;22.23;;
31966;SDS011;18496;52.042;6.812;2024-03-08T10:59:47;39.67;;;20.33;;
31966;SDS011;18496;52.042;6.812;2024-03-08T11:01:53;43.13;;;22.10;;
31966;SDS011;18496;52.042;6.812;2024-03-08T11:03:57;39.10;;;20.35;;
31966;SDS011;18496;52.042;6.812;2024-03-08T11:06:01;37.65;;;19.75;;
31966;SDS011;18496;52.042;6.812;2024-03-08T11:10:20;40.17;;;21.40;;
31966;SDS011;18496;52.042;6.812;2024-03-08T11:12:25;42.25;;;21.17;;
31966;SDS011;18496;52.042;6.812;2024-03-08T11:14:48;42.38;;;20.33;;
31966;SDS011;18496;52.042;6.812;2024-03-08T11:16:53;38.93;;;20.93;;
31966;SDS011;18496;52.042;6.812;2024-03-08T11:19:44;35.28;;;19.75;;
31966;SDS011;18496;52.042;6.812;2024-03-08T11:21:24;37.13;;;18.70;;
31966;SDS011;18496;52.042;6.812;2024-03-08T11:23:30;36.97;;;19.38;;
31966;SDS011;18496;52.042;6.812;2024-03-08T11:25:38;39.20;;;20.02;;
31966;SDS011;18496;52.042;6.812;2024-03-08T11:27:52;41.15;;;19.58;;
31966;SDS011;18496;52.042;6.812;2024-03-08T11:30:09;37.45;;;19.83;;
31966;SDS011;18496;52.042;6.812;2024-03-08T11:32:18;32.05;;;18.25;;
31966;SDS011;18496;52.042;6.812;2024-03-08T11:34:25;33.95;;;18.60;;
31966;SDS011;18496;52.042;6.812;2024-03-08T11:36:29;37.47;;;19.05;;
31966;SDS011;18496;52.042;6.812;2024-03-08T11:38:37;33.92;;;20.45;;
31966;SDS011;18496;52.042;6.812;2024-03-08T11:40:45;35.03;;;19.42;;
31966;SDS011;18496;52.042;6.812;2024-03-08T11:42:52;37.50;;;18.98;;
31966;SDS011;18496;52.042;6.812;2024-03-08T11:44:56;37.25;;;18.15;;
31966;SDS011;18496;52.042;6.812;2024-03-08T11:47:01;34.28;;;17.48;;
31966;SDS011;18496;52.042;6.812;2024-03-08T11:49:04;37.90;;;18.40;;
31966;SDS011;18496;52.042;6.812;2024-03-08T11:51:08;32.78;;;18.13;;
31966;SDS011;18496;52.042;6.812;2024-03-08T11:53:16;36.92;;;18.63;;
31966;SDS011;18496;52.042;6.812;2024-03-08T11:55:20;36.53;;;19.92;;
31966;SDS011;18496;52.042;6.812;2024-03-08T11:57:28;34.17;;;17.20;;
31966;SDS011;18496;52.042;6.812;2024-03-08T11:59:32;31.10;;;17.38;;
31966;SDS011;18496;52.042;6.812;2024-03-08T12:01:36;29.15;;;17.08;;
31966;SDS011;18496;52.042;6.812;2024-03-08T12:03:40;30.63;;;17.13;;
31966;SDS011;18496;52.042;6.812;2024-03-08T12:05:47;31.38;;;17.13;;
31966;SDS011;18496;52.042;6.812;2024-03-08T12:08:02;30.00;;;16.63;;
31966;SDS011;18496;52.042;6.812;2024-03-08T12:12:24;26.30;;;16.15;;
31966;SDS011;18496;52.042;6.812;2024-03-08T12:14:28;30.70;;;16.50;;
31966;SDS011;18496;52.042;6.812;2024-03-08T12:16:33;28.77;;;15.55;;
31966;SDS011;18496;52.042;6.812;2024-03-08T12:18:39;29.40;;;16.10;;